ZYTX Airport Information

Runway Information
Runway 06 Length 10499 ft width 148 ft
Elevation 171 ft Threshold 0 ft Heading 49
Runway 24 Length 10499 ft Width 148 ft
Elevation 197 ft Threshold 0 ft Heading 229
Airport Frequencies
Type ATIS Name ATIS Frequency 127.45 MHZ
Type TWR Name SHENYANG T Frequency 118.1 MHZ
Airport Navaids
Type NDB Name Wangbingou Frequency 365 KHZ
Type NDB Name Dongyangjiao Frequency 296 KHZ
Type VOR-DME Name Shenyang Frequency 114100 KHZ
Airport Weather Information & NOTAM
ADDS - METARS form results

(0822 UTC 30 May 2020)
Data provider http://aviationweather.gov/metar/data/
 
METAR text: ZYTX 300800Z 17006MPS CAVOK 27/16 Q1010 NOSIG
Conditions at: ZYTX (SHENYANG/TAOKIAN, CN) observed 0800 UTC 30 May 2020
Temperature: 27.0°C (81°F)
Dewpoint: 16.0°C (61°F) [RH = 51%]
Pressure (altimeter): 29.82 inches Hg (1010.0 mb)
Winds: from the S (170 degrees) at 14 MPH (12 knots; 6.2 m/s)
Visibility: 6 or more miles (10+ km)
Ceiling: ceiling and visibility are OK
Clouds: unknown
Weather: no significant weather observed at this time

METAR text: ZYTX 300730Z 18007MPS CAVOK 27/15 Q1011 NOSIG
Conditions at: ZYTX (SHENYANG/TAOKIAN, CN) observed 0730 UTC 30 May 2020
Temperature: 27.0°C (81°F)
Dewpoint: 15.0°C (59°F) [RH = 48%]
Pressure (altimeter): 29.85 inches Hg (1011.0 mb)
Winds: from the S (180 degrees) at 16 MPH (14 knots; 7.2 m/s)
Visibility: 6 or more miles (10+ km)
Ceiling: ceiling and visibility are OK
Clouds: unknown
Weather: no significant weather observed at this time

Forecast for: ZYTX (SHENYANG/TAOKIAN, CN)
Text: TAF ZYTX 300305Z 3006/3106 19005MPS 9999 SCT040 TX29/3006Z TN17/3020Z
Forecast period: 0600 UTC 30 May 2020 to 0600 UTC 31 May 2020
Forecast type: FROM: standard forecast or significant change
Winds: from the S (190 degrees) at 12 MPH (10 knots; 5.1 m/s)
Visibility: 6 or more miles 10+ km)
Ceiling: at least 12,000 feet AGL
Clouds: scattered clouds at 4000 feet AGL
Weather: no significant weather forecast for this period